Omidieh, Iran

1:42 PM IRDT on August 30, 2016 (GMT +0430)
Mahshahr | | Change Station

Elev 7 ft 30.56 °N, 49.15 °E | Updated 12 minutes ago

Clear
Clear
106 °F
Feels Like 121 °F
N
9
Wind Variable Wind from South

Today
High -- | Low -- °F
--% Chance of Precip.
Yesterday
High -- | Low -- °F
Precip. -- in
Pressure 29.62 in
Visibility -9999.0 miles
Clouds
Heat Index 121 °F
Dew Point 75 °F
Humidity 38%
Rainfall 0.00 in
Snow Depth Not available.
6:46 AM 7:36 PM
Waning Crescent, 4% visible
METAR OIAM 300900Z 17008KT CAVOK 41/24 Q1003
Pressure 29.62 in
Visibility -9999.0 miles
Clouds
Heat Index 121 °F
Dew Point 75 °F
Humidity 38%
Rainfall 0.00 in
Snow Depth Not available.
6:46 AM 7:36 PM
Waning Crescent, 4% visible
METAR OIAM 300900Z 17008KT CAVOK 41/24 Q1003

10-Day Weather Forecast

No radar image for this location.
×

Almanac

Astronomy

Aug. 30, 2016 Rise Set
Actual Time
Civil Twilight
Nautical Twilight
Astronomical Twilight
Moon
Length of Visible Light
Length of Day
Tomorrow will be .
, % of the Moon is Illuminated

Today's Extremes

Country Highs Country Lows

Community

WunderPhotos

Upload Photos

1,935,795 photos uploaded!

WunderBlog® & News

Nearby

Air Quality

  Air Quality AQ Index Pollutant
Not available.

Snow Depth

Station Depth Elevation

Earthquake Activity

City Distance Mag. Time & Date
Minimum magnitude displayed is 2.5.

Coastal Water Temperatures

Place Temperature

Stations

Nearby Weather Stations

Station Location Temp. Windchill Dew Point Humidity Wind Precip. Elev Updated Type